Time;durP1;ratioP1;P1;durP2;ratioP2;P2;SDS_P1;SDS_P2;PMS_P1;PMS_P2;Temp;Humidity;BMP_temperature;BMP_pressure;BME280_temperature;BME280_humidity;BME280_pressure;Samples;Min_cycle;Max_cycle;Signal;HPM_P1;HPM_P2
2023/02/25 00:00:29;;;;;;;13.00;7.13;;;5.40;90.80;;;;;;5023572;28;20489;-77
2023/02/25 00:02:56;;;;;;;9.77;5.60;;;5.40;90.80;;;;;;5024060;28;20946;-76
2023/02/25 00:05:22;;;;;;;13.10;6.50;;;5.50;90.90;;;;;;5015346;28;20475;-78
2023/02/25 00:07:48;;;;;;;12.00;5.80;;;5.60;91.00;;;;;;5027811;28;20493;-77
2023/02/25 00:10:14;;;;;;;12.50;6.80;;;5.60;91.10;;;;;;5031417;28;20450;-77
2023/02/25 00:12:41;;;;;;;15.30;6.00;;;5.60;91.20;;;;;;5035813;28;20443;-77
2023/02/25 00:15:08;;;;;;;10.70;5.83;;;5.50;91.00;;;;;;5033489;28;20447;-76
2023/02/25 00:17:34;;;;;;;10.40;6.13;;;5.50;90.90;;;;;;5030688;28;20831;-77
2023/02/25 00:20:00;;;;;;;13.60;6.00;;;5.40;90.50;;;;;;5032015;28;20456;-78
2023/02/25 00:22:27;;;;;;;14.83;6.50;;;5.30;90.10;;;;;;5034985;28;20440;-77
2023/02/25 00:24:53;;;;;;;16.83;6.40;;;5.30;90.10;;;;;;5032751;28;20676;-78
2023/02/25 00:27:19;;;;;;;16.90;6.40;;;5.30;90.30;;;;;;5034199;28;20466;-79
2023/02/25 00:29:45;;;;;;;14.13;6.10;;;5.40;90.60;;;;;;5034468;28;20416;-77
2023/02/25 00:32:10;;;;;;;13.90;6.77;;;5.30;90.50;;;;;;5034388;28;20412;-77
2023/02/25 00:34:36;;;;;;;14.03;6.80;;;5.40;90.60;;;;;;5036186;28;20185;-77
2023/02/25 00:37:02;;;;;;;17.87;7.37;;;5.30;90.60;;;;;;5033539;28;20196;-77
2023/02/25 00:39:42;;;;;;;14.83;7.13;;;5.20;90.60;;;;;;5036239;28;20185;-77
2023/02/25 00:42:16;;;;;;;16.83;7.47;;;5.20;90.60;;;;;;5034027;28;20192;-78
2023/02/25 00:44:49;;;;;;;22.13;7.37;;;5.20;90.40;;;;;;5044964;28;20985;-79
2023/02/25 00:47:17;;;;;;;15.80;7.43;;;5.20;90.40;;;;;;5034538;28;20412;-76
2023/02/25 00:49:46;;;;;;;17.20;7.03;;;5.20;90.60;;;;;;5035887;28;20412;-79
2023/02/25 00:52:12;;;;;;;17.57;7.43;;;5.30;90.70;;;;;;5036360;28;20423;-78
2023/02/25 00:54:38;;;;;;;15.90;7.07;;;5.30;90.80;;;;;;5035571;28;20818;-78
2023/02/25 00:57:04;;;;;;;17.43;7.20;;;5.40;90.70;;;;;;5033157;28;20444;-79
2023/02/25 00:59:31;;;;;;;12.17;6.80;;;5.50;90.80;;;;;;5035497;28;20442;-79
2023/02/25 01:01:57;;;;;;;16.97;7.27;;;5.60;90.40;;;;;;5035920;28;20802;-78
2023/02/25 01:04:22;;;;;;;14.53;6.93;;;5.60;90.00;;;;;;5035382;28;20455;-78
2023/02/25 01:06:48;;;;;;;15.07;6.53;;;5.60;88.70;;;;;;5031368;28;20205;-78
2023/02/25 01:09:14;;;;;;;15.90;6.83;;;5.70;87.40;;;;;;5034909;28;20187;-77
2023/02/25 01:11:44;;;;;;;12.80;6.60;;;5.70;87.00;;;;;;5035121;28;20197;-78
2023/02/25 01:14:13;;;;;;;11.10;5.93;;;5.70;85.90;;;;;;5034150;28;20185;-77
2023/02/25 01:16:39;;;;;;;11.60;6.70;;;5.70;85.70;;;;;;5030427;28;20551;-78
2023/02/25 01:19:10;;;;;;;12.20;5.80;;;5.80;85.60;;;;;;5031913;28;20416;-78
2023/02/25 01:21:39;;;;;;;11.37;5.07;;;5.80;84.40;;;;;;5027812;28;20428;-78
2023/02/25 01:24:09;;;;;;;11.97;5.77;;;5.70;83.60;;;;;;5035591;28;20502;-78
2023/02/25 01:26:38;;;;;;;11.60;5.40;;;5.60;81.90;;;;;;5032579;28;20456;-78
2023/02/25 01:29:08;;;;;;;11.00;5.80;;;5.60;82.80;;;;;;5032913;28;20793;-76
2023/02/25 01:31:34;;;;;;;12.17;5.40;;;5.70;81.90;;;;;;5021657;28;20412;-78
2023/02/25 01:34:02;;;;;;;9.40;5.00;;;5.70;82.20;;;;;;5027806;28;20443;-77
2023/02/25 01:36:29;;;;;;;14.30;6.33;;;5.60;80.60;;;;;;5029966;28;20235;-78
2023/02/25 01:38:55;;;;;;;10.90;5.40;;;5.60;81.20;;;;;;5033685;28;20816;-77
2023/02/25 01:41:21;;;;;;;10.70;5.63;;;5.60;82.20;;;;;;5035132;28;20431;-78
2023/02/25 01:44:05;;;;;;;8.30;4.30;;;5.60;82.20;;;;;;5029615;28;20212;-78
2023/02/25 01:46:30;;;;;;;10.13;5.50;;;5.60;81.70;;;;;;5032068;28;20958;-78
2023/02/25 01:48:56;;;;;;;10.30;5.17;;;5.60;80.80;;;;;;5033258;28;20444;-78
2023/02/25 01:51:26;;;;;;;10.23;6.03;;;5.70;81.10;;;;;;5026700;28;20428;-78
2023/02/25 01:53:53;;;;;;;8.90;4.40;;;5.60;80.90;;;;;;5033549;28;20792;-78
2023/02/25 01:56:21;;;;;;;7.47;4.60;;;5.50;81.50;;;;;;5031205;28;20459;-78
2023/02/25 01:58:47;;;;;;;10.23;4.37;;;5.50;81.20;;;;;;5049378;28;20438;-77
2023/02/25 02:01:16;;;;;;;8.40;4.53;;;5.50;81.10;;;;;;5056458;28;20456;-77
2023/02/25 02:03:42;;;;;;;9.13;3.97;;;5.50;80.00;;;;;;5056141;28;20458;-78
2023/02/25 02:06:39;;;;;;;7.57;4.53;;;5.40;80.00;;;;;;5023988;28;20447;-77
2023/02/25 02:09:08;;;;;;;8.83;4.87;;;5.50;81.10;;;;;;5033613;28;20901;-77
2023/02/25 02:11:33;;;;;;;6.43;3.80;;;5.50;81.20;;;;;;5025763;28;20514;-78
2023/02/25 02:14:02;;;;;;;6.53;4.07;;;5.50;80.20;;;;;;5035990;28;20420;-78
2023/02/25 02:16:52;;;;;;;6.80;4.37;;;5.40;80.00;;;;;;5030325;28;20205;-78
2023/02/25 02:19:24;;;;;;;10.93;4.47;;;5.40;80.00;;;;;;5033342;28;20431;-77
2023/02/25 02:22:11;;;;;;;10.53;4.20;;;5.40;80.80;;;;;;5031816;28;20412;-78
2023/02/25 02:24:55;;;;;;;5.17;3.10;;;5.40;79.60;;;;;;5024921;28;20502;-77
2023/02/25 02:27:42;;;;;;;7.70;4.27;;;5.40;79.60;;;;;;5045983;28;20423;-75
2023/02/25 02:30:38;;;;;;;4.43;3.17;;;5.50;79.90;;;;;;5027941;28;20785;-76
2023/02/25 02:33:08;;;;;;;8.50;4.17;;;5.50;80.30;;;;;;5023261;28;20533;-77
2023/02/25 02:35:43;;;;;;;6.70;3.63;;;5.50;79.70;;;;;;5029346;28;20863;-77
2023/02/25 02:38:11;;;;;;;9.50;3.80;;;5.50;80.00;;;;;;5027373;28;20458;-78
2023/02/25 02:40:39;;;;;;;5.63;3.67;;;5.50;80.00;;;;;;5025286;28;20442;-77
2023/02/25 02:43:20;;;;;;;5.40;3.10;;;5.40;80.00;;;;;;5018823;28;20799;-77
2023/02/25 02:45:53;;;;;;;9.47;3.87;;;5.50;80.20;;;;;;5021704;28;20483;-78
2023/02/25 02:48:43;;;;;;;7.47;3.90;;;5.50;80.60;;;;;;5026611;28;20925;-78
2023/02/25 02:51:21;;;;;;;9.23;4.57;;;5.50;80.60;;;;;;5029850;28;20470;-78
2023/02/25 02:53:52;;;;;;;9.93;4.13;;;5.40;81.10;;;;;;5031636;28;20438;-78
2023/02/25 02:56:21;;;;;;;9.40;4.20;;;5.40;81.80;;;;;;5026025;28;20459;-77
2023/02/25 02:59:06;;;;;;;10.87;4.20;;;5.40;81.80;;;;;;5025430;28;20863;-77
2023/02/25 03:01:37;;;;;;;8.63;4.40;;;5.40;81.80;;;;;;5032721;28;20443;-77
2023/02/25 03:04:07;;;;;;;8.07;4.40;;;5.40;81.20;;;;;;5031772;28;20472;-78
2023/02/25 03:06:37;;;;;;;7.60;4.00;;;5.40;81.50;;;;;;5028756;28;20546;-78
2023/02/25 03:09:08;;;;;;;10.50;3.80;;;5.40;80.60;;;;;;5031056;28;20412;-78
2023/02/25 03:11:33;;;;;;;8.23;4.23;;;5.40;80.50;;;;;;5032392;28;20913;-78
2023/02/25 03:13:59;;;;;;;9.03;4.37;;;5.30;80.00;;;;;;5029507;28;20493;-78
2023/02/25 03:16:38;;;;;;;11.73;5.13;;;5.30;79.60;;;;;;5030477;28;20258;-78
2023/02/25 03:19:17;;;;;;;10.60;4.60;;;5.30;80.20;;;;;;5030895;28;20196;-77
2023/02/25 03:21:51;;;;;;;8.00;4.47;;;5.30;79.70;;;;;;5028995;28;20544;-77
2023/02/25 03:24:21;;;;;;;6.97;4.00;;;5.30;79.20;;;;;;5029338;28;21046;-77
2023/02/25 03:26:51;;;;;;;8.23;4.13;;;5.30;78.90;;;;;;5021300;28;20538;-77
2023/02/25 03:29:24;;;;;;;10.13;3.63;;;5.30;78.70;;;;;;5028170;28;20435;-77
2023/02/25 03:31:59;;;;;;;6.50;3.70;;;5.40;79.00;;;;;;5031393;28;20420;-77
2023/02/25 03:34:32;;;;;;;8.90;4.07;;;5.40;78.90;;;;;;5032227;28;20491;-77
2023/02/25 03:37:03;;;;;;;7.30;3.93;;;5.40;78.30;;;;;;5029422;28;20440;-78
2023/02/25 03:39:33;;;;;;;9.83;3.30;;;5.40;78.00;;;;;;5031071;28;20416;-77
2023/02/25 03:42:02;;;;;;;8.07;3.63;;;5.40;77.80;;;;;;5030378;28;20487;-77
2023/02/25 03:44:33;;;;;;;7.83;4.33;;;5.40;77.80;;;;;;5032056;28;20463;-77
2023/02/25 03:47:01;;;;;;;5.20;3.63;;;5.30;77.40;;;;;;5032739;28;20505;-77
2023/02/25 03:49:33;;;;;;;5.10;2.30;;;5.30;77.40;;;;;;5037125;28;20415;-77
2023/02/25 03:52:03;;;;;;;7.40;3.07;;;5.20;77.30;;;;;;5048461;28;20477;-77
2023/02/25 03:54:29;;;;;;;7.23;2.40;;;5.20;77.60;;;;;;5036210;28;20420;-77
2023/02/25 03:56:55;;;;;;;10.27;3.00;;;5.20;77.40;;;;;;5034371;28;20452;-78
2023/02/25 03:59:26;;;;;;;8.03;3.60;;;5.10;75.80;;;;;;5037053;28;20188;-77
2023/02/25 04:01:54;;;;;;;5.73;2.60;;;5.10;76.10;;;;;;5039008;28;20448;-79
2023/02/25 04:04:19;;;;;;;4.50;2.40;;;5.10;75.70;;;;;;5035704;28;20535;-78
2023/02/25 04:06:46;;;;;;;10.30;3.27;;;5.10;75.90;;;;;;5034874;28;21247;-79
2023/02/25 04:09:12;;;;;;;5.67;2.40;;;5.10;74.90;;;;;;5038491;28;20186;-79
2023/02/25 04:11:37;;;;;;;4.43;2.10;;;5.00;75.10;;;;;;5039469;28;20412;-79
2023/02/25 04:14:03;;;;;;;4.33;2.33;;;5.00;75.50;;;;;;5038959;28;20424;-78
2023/02/25 04:16:28;;;;;;;6.70;2.30;;;5.00;75.40;;;;;;5037297;28;20594;-79
2023/02/25 04:18:54;;;;;;;5.10;3.30;;;5.00;75.20;;;;;;5031297;28;20604;-80
2023/02/25 04:21:30;;;;;;;7.53;2.07;;;5.00;75.40;;;;;;5038416;28;20185;-79
2023/02/25 04:23:56;;;;;;;6.57;2.00;;;5.10;75.70;;;;;;5038241;28;20204;-80
2023/02/25 04:26:22;;;;;;;4.97;2.03;;;5.10;74.80;;;;;;5037624;28;20462;-78
2023/02/25 04:28:48;;;;;;;5.47;2.33;;;5.00;75.10;;;;;;5037437;28;20424;-79
2023/02/25 04:31:13;;;;;;;3.13;2.07;;;4.90;74.20;;;;;;5035633;28;21177;-78
2023/02/25 04:33:39;;;;;;;4.77;2.10;;;5.00;75.20;;;;;;5036020;28;20657;-79
2023/02/25 04:36:05;;;;;;;8.77;2.43;;;5.00;74.80;;;;;;5033817;28;20209;-78
2023/02/25 04:38:30;;;;;;;4.93;2.20;;;5.00;74.50;;;;;;5034036;28;20611;-78
2023/02/25 04:40:56;;;;;;;4.97;2.40;;;5.00;74.20;;;;;;5040327;28;20420;-78
2023/02/25 04:43:21;;;;;;;10.10;2.40;;;5.00;73.70;;;;;;5038608;28;20239;-78
2023/02/25 04:45:48;;;;;;;4.10;2.17;;;5.00;74.00;;;;;;5035565;28;20236;-78
2023/02/25 04:48:13;;;;;;;4.23;2.10;;;5.00;74.30;;;;;;5040037;28;20190;-77
2023/02/25 04:50:39;;;;;;;3.50;2.00;;;5.00;74.80;;;;;;5051728;28;20447;-78
2023/02/25 04:53:05;;;;;;;11.03;2.37;;;5.00;74.30;;;;;;5054163;28;20200;-77
2023/02/25 04:55:30;;;;;;;5.60;2.10;;;5.10;74.00;;;;;;5038575;28;20475;-77
2023/02/25 04:57:56;;;;;;;7.40;2.17;;;5.00;73.50;;;;;;5035772;28;20549;-77
2023/02/25 05:00:23;;;;;;;5.80;1.90;;;5.00;73.90;;;;;;5035018;28;20612;-77
2023/02/25 05:02:49;;;;;;;3.20;1.90;;;5.00;73.60;;;;;;5034479;28;20227;-77
2023/02/25 05:05:16;;;;;;;4.60;1.90;;;5.00;73.60;;;;;;5026250;28;20546;-76
2023/02/25 05:07:42;;;;;;;7.10;2.23;;;5.00;73.90;;;;;;5034232;28;20558;-78
2023/02/25 05:10:10;;;;;;;4.87;2.33;;;5.00;73.50;;;;;;5034466;28;20427;-78
2023/02/25 05:12:35;;;;;;;3.50;1.90;;;5.00;73.30;;;;;;5033765;28;20420;-79
2023/02/25 05:15:04;;;;;;;7.73;3.03;;;5.00;72.90;;;;;;5032004;28;20811;-77
2023/02/25 05:17:31;;;;;;;3.77;1.83;;;5.00;72.90;;;;;;5031803;28;20188;-78
2023/02/25 05:19:57;;;;;;;5.03;1.90;;;5.00;72.40;;;;;;5033826;28;20416;-78
2023/02/25 05:22:23;;;;;;;4.40;1.87;;;4.90;72.70;;;;;;5033665;28;20526;-78
2023/02/25 05:24:49;;;;;;;6.60;1.73;;;4.90;73.30;;;;;;5033894;28;20623;-76
2023/02/25 05:27:14;;;;;;;6.50;1.87;;;4.90;73.50;;;;;;5032873;28;20424;-78
2023/02/25 05:29:40;;;;;;;4.57;1.73;;;4.90;72.70;;;;;;5032084;28;20307;-78
2023/02/25 05:32:06;;;;;;;3.97;1.40;;;4.90;72.40;;;;;;5026698;28;20191;-78
2023/02/25 05:34:32;;;;;;;3.47;1.67;;;5.00;72.70;;;;;;5031329;28;20239;-77
2023/02/25 05:36:58;;;;;;;6.03;1.53;;;5.00;72.60;;;;;;5031158;28;20551;-78
2023/02/25 05:39:23;;;;;;;5.40;2.40;;;4.90;72.60;;;;;;5033709;28;21009;-79
2023/02/25 05:41:50;;;;;;;3.83;1.50;;;5.00;72.10;;;;;;5034174;28;20188;-78
2023/02/25 05:44:16;;;;;;;4.27;1.93;;;5.00;72.40;;;;;;5033823;28;20911;-77
2023/02/25 05:46:42;;;;;;;6.63;2.53;;;4.90;70.80;;;;;;5031336;28;21002;-78
2023/02/25 05:49:09;;;;;;;3.93;1.70;;;4.90;71.40;;;;;;5032137;28;20506;-78
2023/02/25 05:51:34;;;;;;;6.27;2.03;;;4.90;71.70;;;;;;5031918;28;20181;-77
2023/02/25 05:54:00;;;;;;;2.27;1.33;;;4.80;71.80;;;;;;5033118;28;20479;-78
2023/02/25 05:56:26;;;;;;;3.67;2.50;;;4.80;71.10;;;;;;5031099;28;20224;-77
2023/02/25 05:58:52;;;;;;;4.70;1.60;;;4.80;71.70;;;;;;5033152;28;20313;-77
2023/02/25 06:01:21;;;;;;;4.03;1.40;;;4.90;71.60;;;;;;5049000;28;20443;-79
2023/02/25 06:03:48;;;;;;;5.23;1.40;;;5.00;71.40;;;;;;5056086;28;20427;-78
2023/02/25 06:06:16;;;;;;;6.70;1.80;;;4.90;71.30;;;;;;5045766;28;20452;-78
2023/02/25 06:08:46;;;;;;;3.30;1.37;;;5.00;71.40;;;;;;5053191;28;20430;-79
2023/02/25 06:11:17;;;;;;;7.70;2.87;;;5.00;71.10;;;;;;5053579;28;20426;-77
2023/02/25 06:13:43;;;;;;;3.63;1.50;;;5.00;70.80;;;;;;5054750;28;20440;-78
2023/02/25 06:16:08;;;;;;;5.20;1.90;;;5.00;71.30;;;;;;5034285;28;20638;-77
2023/02/25 06:18:35;;;;;;;4.37;1.47;;;5.00;71.30;;;;;;5039300;28;20196;-78
2023/02/25 06:21:13;;;;;;;3.07;1.23;;;5.00;71.40;;;;;;5033106;28;20556;-78
2023/02/25 06:23:41;;;;;;;2.20;1.27;;;5.00;71.10;;;;;;5027077;28;20428;-77
2023/02/25 06:26:08;;;;;;;2.90;1.13;;;5.00;71.30;;;;;;5030158;28;20513;-78
2023/02/25 06:28:35;;;;;;;2.90;1.60;;;5.10;71.00;;;;;;5027194;28;20965;-78
2023/02/25 06:31:00;;;;;;;3.47;1.60;;;5.10;71.10;;;;;;5033542;28;20903;-77
2023/02/25 06:33:30;;;;;;;3.43;1.60;;;5.00;71.70;;;;;;5032698;28;20478;-77
2023/02/25 06:35:56;;;;;;;3.47;1.57;;;5.00;72.30;;;;;;5032292;28;20228;-78
2023/02/25 06:38:22;;;;;;;5.37;1.77;;;4.90;72.40;;;;;;5033346;28;20805;-79
2023/02/25 06:40:48;;;;;;;3.70;1.63;;;4.70;73.00;;;;;;5033877;28;20432;-77
2023/02/25 06:43:15;;;;;;;5.87;1.80;;;4.60;74.30;;;;;;5033015;28;20276;-78
2023/02/25 06:45:41;;;;;;;4.67;2.27;;;4.50;74.50;;;;;;5031212;28;20443;-79
2023/02/25 06:48:07;;;;;;;4.27;1.93;;;4.40;75.10;;;;;;5033931;28;20444;-78
2023/02/25 06:50:32;;;;;;;3.93;1.73;;;4.40;75.50;;;;;;5032876;28;20964;-77
2023/02/25 06:52:58;;;;;;;16.23;2.60;;;4.50;76.10;;;;;;5033898;28;20180;-77
2023/02/25 06:55:24;;;;;;;3.27;1.70;;;4.50;76.20;;;;;;5033648;28;20487;-76
2023/02/25 06:57:50;;;;;;;2.10;1.30;;;4.50;76.20;;;;;;5029201;28;20569;-76
2023/02/25 07:00:16;;;;;;;5.10;1.40;;;4.50;76.20;;;;;;5033828;28;20898;-76
2023/02/25 07:02:41;;;;;;;3.90;1.70;;;4.50;76.20;;;;;;5042831;28;20438;-76
2023/02/25 07:05:07;;;;;;;7.90;2.00;;;4.50;76.10;;;;;;5048945;28;20527;-78
2023/02/25 07:07:33;;;;;;;2.93;1.63;;;4.50;75.90;;;;;;5048941;28;20188;-77
2023/02/25 07:09:58;;;;;;;3.90;1.60;;;4.50;76.10;;;;;;5048693;28;20423;-77
2023/02/25 07:12:24;;;;;;;3.57;1.67;;;4.40;75.90;;;;;;5036794;28;20185;-78
2023/02/25 07:14:50;;;;;;;3.40;2.00;;;4.40;75.90;;;;;;5032654;28;20247;-78
2023/02/25 07:17:15;;;;;;;2.33;1.50;;;4.40;76.20;;;;;;5033172;28;20192;-77
2023/02/25 07:19:41;;;;;;;4.63;2.17;;;4.50;76.70;;;;;;5030852;28;20267;-77
2023/02/25 07:22:17;;;;;;;4.47;2.07;;;4.50;76.80;;;;;;5032472;28;20181;-76
2023/02/25 07:24:43;;;;;;;4.17;1.80;;;4.50;76.70;;;;;;5037457;28;20192;-79
2023/02/25 07:27:10;;;;;;;5.00;1.50;;;4.50;76.10;;;;;;5038365;28;20420;-77
2023/02/25 07:29:36;;;;;;;4.73;1.60;;;4.50;76.20;;;;;;5040705;28;20515;-77
2023/02/25 07:32:02;;;;;;;3.77;1.80;;;4.60;76.50;;;;;;5037046;28;20428;-77
2023/02/25 07:34:27;;;;;;;5.93;1.97;;;4.60;76.10;;;;;;5036717;28;20205;-76
2023/02/25 07:36:53;;;;;;;4.40;1.60;;;4.60;75.20;;;;;;5027182;28;20464;-77
2023/02/25 07:39:18;;;;;;;4.23;1.70;;;4.70;75.10;;;;;;5033188;28;20276;-78
2023/02/25 07:41:44;;;;;;;3.27;1.60;;;4.90;75.20;;;;;;5035695;28;20185;-77
2023/02/25 07:44:09;;;;;;;8.00;1.70;;;5.00;74.30;;;;;;5037437;28;20185;-78
2023/02/25 07:46:35;;;;;;;6.60;1.93;;;4.90;73.90;;;;;;5036075;28;20733;-78
2023/02/25 07:49:01;;;;;;;2.63;1.70;;;4.90;73.20;;;;;;5040639;28;20653;-77
2023/02/25 07:51:27;;;;;;;6.83;2.10;;;5.10;73.90;;;;;;5040442;28;20565;-78
2023/02/25 07:53:54;;;;;;;3.70;1.60;;;5.30;73.60;;;;;;5028838;28;20201;-76
2023/02/25 07:56:23;;;;;;;9.30;2.33;;;5.20;72.60;;;;;;5038259;28;20204;-77
2023/02/25 07:58:49;;;;;;;4.00;1.80;;;5.20;71.30;;;;;;5034697;28;20420;-77
2023/02/25 08:01:24;;;;;;;2.67;1.43;;;5.10;71.00;;;;;;5031672;28;20489;-78
2023/02/25 08:03:51;;;;;;;5.47;1.60;;;4.90;71.10;;;;;;5024692;28;20173;-77
2023/02/25 08:06:17;;;;;;;7.80;1.73;;;5.00;70.80;;;;;;5029040;28;20452;-78
2023/02/25 08:08:43;;;;;;;3.10;1.60;;;4.90;70.80;;;;;;5031772;28;20434;-79
2023/02/25 08:11:11;;;;;;;1.73;1.40;;;4.90;71.30;;;;;;5032033;28;21025;-78
2023/02/25 08:13:37;;;;;;;5.60;1.77;;;5.00;70.80;;;;;;5032927;28;20291;-78
2023/02/25 08:16:08;;;;;;;3.73;1.70;;;4.90;71.00;;;;;;5031529;28;20472;-78
2023/02/25 08:18:34;;;;;;;7.40;1.90;;;4.90;71.30;;;;;;5037141;28;20408;-79
2023/02/25 08:20:59;;;;;;;3.97;1.40;;;4.90;71.00;;;;;;5032227;28;20452;-77
2023/02/25 08:23:25;;;;;;;7.30;1.50;;;4.90;70.80;;;;;;5033987;28;20423;-78
2023/02/25 08:25:55;;;;;;;3.20;1.80;;;5.10;70.70;;;;;;5026121;28;20217;-78
2023/02/25 08:28:26;;;;;;;3.70;1.60;;;5.10;69.90;;;;;;5031934;28;20197;-78
2023/02/25 08:30:52;;;;;;;3.03;1.50;;;5.20;69.10;;;;;;5030729;28;20424;-78
2023/02/25 08:33:18;;;;;;;2.60;2.03;;;5.10;68.60;;;;;;5035753;28;20861;-78
2023/02/25 08:35:44;;;;;;;5.30;2.00;;;5.10;68.30;;;;;;5030673;28;20577;-77
2023/02/25 08:38:11;;;;;;;11.73;2.20;;;5.20;68.20;;;;;;5035572;28;20416;-76
2023/02/25 08:40:40;;;;;;;7.80;1.60;;;5.20;68.00;;;;;;5034695;28;20260;-77
2023/02/25 08:43:07;;;;;;;4.97;1.50;;;5.30;67.50;;;;;;5036410;28;20419;-78
2023/02/25 08:45:33;;;;;;;10.20;2.17;;;5.40;66.30;;;;;;5034107;28;20833;-77
2023/02/25 08:47:58;;;;;;;3.50;1.80;;;5.30;66.40;;;;;;5035407;28;20874;-78
2023/02/25 08:50:25;;;;;;;2.83;1.70;;;5.40;67.00;;;;;;5039163;28;20447;-76
2023/02/25 08:52:51;;;;;;;4.00;1.60;;;5.30;67.00;;;;;;5037927;28;20244;-79
2023/02/25 08:55:17;;;;;;;5.67;1.90;;;5.30;67.20;;;;;;5040420;28;20506;-79
2023/02/25 08:57:43;;;;;;;3.53;1.80;;;5.40;67.20;;;;;;5046896;28;20839;-78
2023/02/25 09:00:14;;;;;;;5.13;2.30;;;5.40;66.90;;;;;;5051909;28;20435;-78
2023/02/25 09:02:40;;;;;;;3.60;1.80;;;5.30;67.50;;;;;;5057372;28;20193;-78
2023/02/25 09:05:06;;;;;;;7.50;2.50;;;5.40;67.90;;;;;;5049844;28;20456;-79
2023/02/25 09:07:32;;;;;;;5.03;1.77;;;5.40;68.00;;;;;;5039547;28;20843;-79
2023/02/25 09:09:58;;;;;;;3.83;1.50;;;5.30;67.70;;;;;;5054543;28;20411;-79
2023/02/25 09:12:23;;;;;;;4.80;2.03;;;5.40;67.70;;;;;;5055579;28;20205;-79
2023/02/25 09:14:49;;;;;;;3.93;1.87;;;5.40;67.00;;;;;;5056343;28;20209;-79
2023/02/25 09:17:15;;;;;;;3.10;1.10;;;5.60;66.90;;;;;;5048886;28;20174;-79
2023/02/25 09:19:41;;;;;;;4.40;2.00;;;5.70;66.00;;;;;;5057534;28;20165;-78
2023/02/25 09:22:08;;;;;;;4.50;2.57;;;5.60;65.30;;;;;;5057455;28;20427;-77
2023/02/25 09:24:34;;;;;;;5.90;1.93;;;5.60;66.30;;;;;;5040359;28;20440;-77
2023/02/25 09:27:06;;;;;;;9.50;2.37;;;5.70;66.40;;;;;;5052566;28;20981;-77
2023/02/25 09:29:36;;;;;;;5.03;1.97;;;5.80;65.40;;;;;;5048255;28;20416;-77
2023/02/25 09:32:04;;;;;;;6.37;2.00;;;5.70;66.60;;;;;;5056590;28;20416;-79
2023/02/25 09:34:32;;;;;;;4.57;2.00;;;5.70;67.00;;;;;;5047920;28;20463;-78
2023/02/25 09:36:58;;;;;;;7.40;1.80;;;5.70;66.10;;;;;;5056980;28;20447;-77
2023/02/25 09:39:24;;;;;;;3.73;1.67;;;5.80;64.20;;;;;;5057829;28;20428;-80
2023/02/25 09:41:59;;;;;;;3.83;2.00;;;5.80;62.50;;;;;;5055634;28;20420;-78
2023/02/25 09:44:32;;;;;;;9.43;1.87;;;5.90;62.30;;;;;;5056345;28;20177;-78
2023/02/25 09:47:03;;;;;;;2.60;1.37;;;6.10;62.30;;;;;;5044819;28;20511;-78
2023/02/25 09:49:35;;;;;;;3.20;1.50;;;6.30;61.60;;;;;;5055297;28;20435;-79
2023/02/25 09:52:17;;;;;;;2.17;1.00;;;6.50;60.30;;;;;;5053815;28;20412;-78
2023/02/25 09:54:51;;;;;;;1.93;1.00;;;6.60;56.20;;;;;;5056191;28;20522;-79
2023/02/25 09:57:20;;;;;;;3.30;1.10;;;6.70;56.10;;;;;;5054349;28;20453;-78
2023/02/25 09:59:46;;;;;;;1.60;1.00;;;6.70;55.40;;;;;;5054286;28;20428;-79
2023/02/25 10:02:34;;;;;;;3.63;0.93;;;6.70;55.40;;;;;;5050683;28;20454;-79
2023/02/25 10:05:27;;;;;;;2.30;1.00;;;6.90;55.80;;;;;;5055823;28;20412;-79
2023/02/25 10:08:40;;;;;;;3.10;0.90;;;6.60;55.20;;;;;;5050410;28;20419;-78
2023/02/25 10:11:11;;;;;;;1.97;0.90;;;6.70;55.70;;;;;;5039909;28;20430;-78
2023/02/25 10:13:43;;;;;;;5.40;0.90;;;6.60;55.70;;;;;;5071163;28;20411;-77
2023/02/25 10:16:29;;;;;;;5.73;1.00;;;6.60;55.20;;;;;;5053049;28;20451;-77
2023/02/25 10:19:30;;;;;;;2.87;1.00;;;6.60;56.00;;;;;;5052038;28;20555;-79
2023/02/25 10:22:21;;;;;;;2.03;1.00;;;6.70;56.60;;;;;;4984887;28;20437;-79
2023/02/25 10:24:56;;;;;;;1.17;0.80;;;6.80;55.80;;;;;;5052004;28;20418;-79
2023/02/25 10:27:28;;;;;;;1.87;0.80;;;6.70;55.30;;;;;;5035423;28;20442;-77
2023/02/25 10:30:00;;;;;;;1.73;0.83;;;6.60;55.80;;;;;;5067397;28;20461;-79
2023/02/25 10:32:30;;;;;;;1.70;0.93;;;6.80;56.50;;;;;;5071413;28;20442;-79
2023/02/25 10:35:10;;;;;;;3.60;1.10;;;6.70;56.10;;;;;;5070460;28;20534;-80
2023/02/25 10:37:39;;;;;;;3.07;0.97;;;6.50;56.50;;;;;;5059081;28;20453;-78
2023/02/25 10:40:10;;;;;;;1.77;1.00;;;6.30;57.00;;;;;;5054667;28;20444;-78
2023/02/25 10:42:36;;;;;;;2.60;1.10;;;6.10;58.00;;;;;;5038297;28;20458;-78
2023/02/25 10:45:08;;;;;;;5.80;1.00;;;6.30;58.10;;;;;;5031346;28;20527;-78
2023/02/25 10:47:38;;;;;;;2.70;1.40;;;6.30;58.10;;;;;;5033200;28;20566;-78
2023/02/25 10:50:23;;;;;;;14.00;1.17;;;6.50;58.10;;;;;;5035606;28;20638;-78
2023/02/25 10:53:00;;;;;;;3.90;1.00;;;6.50;58.40;;;;;;5033458;28;20423;-78
2023/02/25 10:55:50;;;;;;;4.03;1.30;;;6.60;57.60;;;;;;5038028;28;20494;-77
2023/02/25 10:58:35;;;;;;;2.57;1.03;;;6.60;57.70;;;;;;5033596;28;20424;-78
2023/02/25 11:01:20;;;;;;;1.47;0.90;;;6.60;57.80;;;;;;5023136;28;20519;-76
2023/02/25 11:03:59;;;;;;;2.53;1.07;;;6.50;57.20;;;;;;5035688;28;20423;-76
2023/02/25 11:06:27;;;;;;;1.53;0.90;;;6.50;57.30;;;;;;5035758;28;20497;-77
2023/02/25 11:08:57;;;;;;;4.27;1.03;;;6.50;57.80;;;;;;5036825;28;20424;-77
2023/02/25 11:11:25;;;;;;;2.00;1.20;;;6.50;57.80;;;;;;5040951;28;20440;-80
2023/02/25 11:13:58;;;;;;;1.87;0.90;;;6.40;58.00;;;;;;5038898;28;20446;-78
2023/02/25 11:16:26;;;;;;;1.80;1.20;;;6.50;58.00;;;;;;5033095;28;21300;-77
2023/02/25 11:18:58;;;;;;;3.67;1.20;;;6.30;58.00;;;;;;5033885;28;20474;-77
2023/02/25 11:21:31;;;;;;;2.40;1.27;;;6.40;58.70;;;;;;5033013;28;20447;-77
2023/02/25 11:24:05;;;;;;;3.27;1.20;;;6.70;57.70;;;;;;5034618;28;20419;-78
2023/02/25 11:26:36;;;;;;;3.60;1.10;;;6.80;57.00;;;;;;5033291;28;20468;-77
2023/02/25 11:29:41;;;;;;;3.73;1.60;;;7.10;56.80;;;;;;5031052;28;20428;-77
2023/02/25 11:32:20;;;;;;;7.13;1.50;;;7.20;56.60;;;;;;5035551;28;20424;-76
2023/02/25 11:34:50;;;;;;;3.03;1.30;;;7.00;57.80;;;;;;5038701;28;20535;-76
2023/02/25 11:37:49;;;;;;;3.77;1.70;;;6.70;58.90;;;;;;5035599;28;20463;-79
2023/02/25 11:40:39;;;;;;;4.03;1.70;;;6.60;59.90;;;;;;5032280;28;20432;-79
2023/02/25 11:43:05;;;;;;;2.00;1.37;;;6.60;60.40;;;;;;5028371;28;20444;-78
2023/02/25 11:45:33;;;;;;;4.80;1.90;;;6.40;61.00;;;;;;5025709;28;20455;-77
2023/02/25 11:48:01;;;;;;;5.80;2.17;;;6.50;61.60;;;;;;5033040;28;20189;-78
2023/02/25 11:50:47;;;;;;;4.00;2.57;;;6.50;61.30;;;;;;5031920;28;20495;-76
2023/02/25 11:53:27;;;;;;;2.93;1.57;;;6.60;61.60;;;;;;5030178;28;20432;-78
2023/02/25 11:56:27;;;;;;;5.40;1.73;;;6.70;60.90;;;;;;5029499;28;21105;-76
2023/02/25 11:59:21;;;;;;;5.70;1.77;;;6.70;60.10;;;;;;5027511;28;20971;-78
2023/02/25 12:01:56;;;;;;;3.07;1.57;;;6.80;60.00;;;;;;5027186;28;20534;-77
2023/02/25 12:04:30;;;;;;;3.90;1.50;;;6.70;60.40;;;;;;5032082;28;20461;-75
2023/02/25 12:07:35;;;;;;;4.97;1.80;;;6.90;60.10;;;;;;5030693;28;20451;-76
2023/02/25 12:10:37;;;;;;;4.73;1.63;;;7.20;59.30;;;;;;5032320;28;20512;-77
2023/02/25 12:13:03;;;;;;;3.83;1.40;;;7.20;58.20;;;;;;5031636;28;20435;-76
2023/02/25 12:15:41;;;;;;;8.30;3.27;;;7.20;58.50;;;;;;5030457;28;20477;-77
2023/02/25 12:18:22;;;;;;;3.50;1.63;;;6.90;58.40;;;;;;5035203;28;20212;-76
2023/02/25 12:21:07;;;;;;;3.90;1.80;;;6.90;59.70;;;;;;5036737;28;20470;-77
2023/02/25 12:23:59;;;;;;;5.53;1.87;;;6.80;59.30;;;;;;5034885;28;20419;-76
2023/02/25 12:26:48;;;;;;;2.07;1.53;;;6.60;60.00;;;;;;5032351;28;20475;-76
2023/02/25 12:29:27;;;;;;;2.73;2.03;;;6.60;61.00;;;;;;5034863;28;20416;-77
2023/02/25 12:32:15;;;;;;;8.10;2.07;;;6.60;61.50;;;;;;5033146;28;20400;-75
2023/02/25 12:35:06;;;;;;;6.20;1.97;;;6.40;62.00;;;;;;5032656;28;20467;-78
2023/02/25 12:37:46;;;;;;;3.33;2.30;;;6.40;63.10;;;;;;5024813;28;20504;-73
2023/02/25 12:40:42;;;;;;;2.83;1.60;;;6.40;63.20;;;;;;5023792;28;20914;-75
2023/02/25 12:43:17;;;;;;;4.33;1.90;;;6.20;63.50;;;;;;5024454;28;20408;-75
2023/02/25 12:46:08;;;;;;;5.10;2.10;;;6.10;64.10;;;;;;5024219;28;20494;-74
2023/02/25 12:48:57;;;;;;;3.33;2.17;;;6.00;65.10;;;;;;5034433;28;20435;-73
2023/02/25 12:51:44;;;;;;;6.23;1.90;;;6.00;66.30;;;;;;5030120;28;20515;-75
2023/02/25 12:54:37;;;;;;;5.30;2.20;;;5.90;67.90;;;;;;5016687;28;20511;-77
2023/02/25 12:57:31;;;;;;;7.20;2.20;;;5.90;69.70;;;;;;5019767;28;20469;-75
2023/02/25 13:00:00;;;;;;;7.23;2.93;;;5.80;70.50;;;;;;5035678;28;20432;-74
2023/02/25 13:02:43;;;;;;;3.80;2.50;;;5.70;72.30;;;;;;5017347;28;20490;-78
2023/02/25 13:05:18;;;;;;;7.23;2.43;;;5.60;73.30;;;;;;5020575;28;20465;-75
2023/02/25 13:07:58;;;;;;;6.67;2.30;;;5.40;74.30;;;;;;5018628;28;20415;-76
2023/02/25 13:10:27;;;;;;;5.67;2.63;;;5.30;75.20;;;;;;5024855;28;20424;-76
2023/02/25 13:13:11;;;;;;;9.83;2.70;;;5.40;75.40;;;;;;5013497;28;20811;-75
2023/02/25 13:16:03;;;;;;;3.43;2.20;;;5.40;75.40;;;;;;5015969;28;20472;-75